sensor_id;sensor_type;location;lat;lon;timestamp;pressure;altitude;pressure_sealevel;temperature;humidity
41703;BME280;861;48.808;9.006;2023-12-20T00:00:30;97089.31;;;7.29;80.38
41703;BME280;861;48.808;9.006;2023-12-20T00:02:57;97083.34;;;7.43;80.64
41703;BME280;861;48.808;9.006;2023-12-20T00:05:24;97086.06;;;7.20;81.80
41703;BME280;861;48.808;9.006;2023-12-20T00:07:51;97077.31;;;7.30;82.07
41703;BME280;861;48.808;9.006;2023-12-20T00:10:17;97082.91;;;7.41;82.46
41703;BME280;861;48.808;9.006;2023-12-20T00:12:44;97080.09;;;7.60;80.84
41703;BME280;861;48.808;9.006;2023-12-20T00:15:13;97081.03;;;7.71;79.96
41703;BME280;861;48.808;9.006;2023-12-20T00:17:40;97068.28;;;7.71;81.01
41703;BME280;861;48.808;9.006;2023-12-20T00:20:07;97063.34;;;7.51;81.11
41703;BME280;861;48.808;9.006;2023-12-20T00:22:34;97067.44;;;7.67;80.77
41703;BME280;861;48.808;9.006;2023-12-20T00:25:01;97063.44;;;7.84;80.26
41703;BME280;861;48.808;9.006;2023-12-20T00:27:27;97056.47;;;7.87;80.78
41703;BME280;861;48.808;9.006;2023-12-20T00:29:54;97051.03;;;7.83;80.72
41703;BME280;861;48.808;9.006;2023-12-20T00:32:20;97051.78;;;7.83;80.84
41703;BME280;861;48.808;9.006;2023-12-20T00:34:47;97051.38;;;7.81;81.41
41703;BME280;861;48.808;9.006;2023-12-20T00:37:13;97049.19;;;7.91;81.96
41703;BME280;861;48.808;9.006;2023-12-20T00:39:40;97051.16;;;7.94;81.32
41703;BME280;861;48.808;9.006;2023-12-20T00:42:07;97048.44;;;7.64;82.90
41703;BME280;861;48.808;9.006;2023-12-20T00:44:33;97059.09;;;7.53;85.09
41703;BME280;861;48.808;9.006;2023-12-20T00:47:00;97054.06;;;7.52;84.64
41703;BME280;861;48.808;9.006;2023-12-20T00:49:27;97056.47;;;7.31;85.74
41703;BME280;861;48.808;9.006;2023-12-20T00:51:54;97050.38;;;7.37;85.43
41703;BME280;861;48.808;9.006;2023-12-20T00:54:21;97052.88;;;7.49;85.25
41703;BME280;861;48.808;9.006;2023-12-20T00:56:47;97055.78;;;7.37;85.54
41703;BME280;861;48.808;9.006;2023-12-20T00:59:14;97056.56;;;7.64;85.39
41703;BME280;861;48.808;9.006;2023-12-20T01:01:41;97061.94;;;7.60;84.94
41703;BME280;861;48.808;9.006;2023-12-20T01:04:08;97060.88;;;7.68;84.71
41703;BME280;861;48.808;9.006;2023-12-20T01:06:35;97056.22;;;7.69;84.94
41703;BME280;861;48.808;9.006;2023-12-20T01:09:01;97057.69;;;7.63;85.05
41703;BME280;861;48.808;9.006;2023-12-20T01:11:28;97051.66;;;7.73;84.48
41703;BME280;861;48.808;9.006;2023-12-20T01:13:55;97048.31;;;7.83;83.87
41703;BME280;861;48.808;9.006;2023-12-20T01:16:21;97050.97;;;7.79;85.06
41703;BME280;861;48.808;9.006;2023-12-20T01:18:48;97062.38;;;7.92;84.75
41703;BME280;861;48.808;9.006;2023-12-20T01:21:15;97058.81;;;7.88;84.34
41703;BME280;861;48.808;9.006;2023-12-20T01:23:42;97064.34;;;7.69;85.86
41703;BME280;861;48.808;9.006;2023-12-20T01:26:08;97069.28;;;7.90;85.10
41703;BME280;861;48.808;9.006;2023-12-20T01:28:35;97060.78;;;7.91;84.97
41703;BME280;861;48.808;9.006;2023-12-20T01:31:02;97066.19;;;7.88;85.33
41703;BME280;861;48.808;9.006;2023-12-20T01:33:28;97067.44;;;7.94;84.69
41703;BME280;861;48.808;9.006;2023-12-20T01:35:55;97062.88;;;8.01;84.19
41703;BME280;861;48.808;9.006;2023-12-20T01:38:21;97061.09;;;8.12;83.60
41703;BME280;861;48.808;9.006;2023-12-20T01:40:48;97062.25;;;8.15;84.02
41703;BME280;861;48.808;9.006;2023-12-20T01:43:15;97058.94;;;8.25;83.43
41703;BME280;861;48.808;9.006;2023-12-20T01:45:42;97058.78;;;8.14;82.97
41703;BME280;861;48.808;9.006;2023-12-20T01:48:10;97058.06;;;8.17;82.69
41703;BME280;861;48.808;9.006;2023-12-20T01:50:38;97055.13;;;8.00;83.94
41703;BME280;861;48.808;9.006;2023-12-20T01:53:08;97043.88;;;8.27;82.63
41703;BME280;861;48.808;9.006;2023-12-20T01:55:40;97045.19;;;8.11;84.15
41703;BME280;861;48.808;9.006;2023-12-20T01:58:10;97046.78;;;8.15;83.90
41703;BME280;861;48.808;9.006;2023-12-20T02:00:38;97051.59;;;8.25;84.38
41703;BME280;861;48.808;9.006;2023-12-20T02:03:06;97045.66;;;8.20;84.76
41703;BME280;861;48.808;9.006;2023-12-20T02:05:36;97046.97;;;8.29;83.87
41703;BME280;861;48.808;9.006;2023-12-20T02:08:06;97048.75;;;8.18;84.58
41703;BME280;861;48.808;9.006;2023-12-20T02:10:33;97050.72;;;8.21;85.69
41703;BME280;861;48.808;9.006;2023-12-20T02:13:00;97047.47;;;8.09;85.52
41703;BME280;861;48.808;9.006;2023-12-20T02:15:27;97061.13;;;8.16;85.00
41703;BME280;861;48.808;9.006;2023-12-20T02:17:55;97047.84;;;8.07;85.12
41703;BME280;861;48.808;9.006;2023-12-20T02:20:22;97047.94;;;8.14;85.61
41703;BME280;861;48.808;9.006;2023-12-20T02:22:48;97056.66;;;8.01;84.81
41703;BME280;861;48.808;9.006;2023-12-20T02:25:15;97061.31;;;8.00;84.67
41703;BME280;861;48.808;9.006;2023-12-20T02:27:42;97053.59;;;8.02;85.06
41703;BME280;861;48.808;9.006;2023-12-20T02:30:09;97055.91;;;8.00;84.71
41703;BME280;861;48.808;9.006;2023-12-20T02:32:39;97058.50;;;7.93;85.23
41703;BME280;861;48.808;9.006;2023-12-20T02:35:06;97057.28;;;7.87;85.81
41703;BME280;861;48.808;9.006;2023-12-20T02:37:33;97058.97;;;7.99;84.52
41703;BME280;861;48.808;9.006;2023-12-20T02:40:00;97061.13;;;7.86;85.29
41703;BME280;861;48.808;9.006;2023-12-20T02:42:27;97062.38;;;7.92;84.82
41703;BME280;861;48.808;9.006;2023-12-20T02:44:56;97071.31;;;7.96;84.98
41703;BME280;861;48.808;9.006;2023-12-20T02:47:23;97074.50;;;8.02;83.80
41703;BME280;861;48.808;9.006;2023-12-20T02:49:50;97057.06;;;7.73;84.01
41703;BME280;861;48.808;9.006;2023-12-20T02:52:16;97062.63;;;7.83;85.86
41703;BME280;861;48.808;9.006;2023-12-20T02:54:43;97054.81;;;7.78;84.66
41703;BME280;861;48.808;9.006;2023-12-20T02:57:10;97065.47;;;7.64;84.21
41703;BME280;861;48.808;9.006;2023-12-20T02:59:36;97072.41;;;7.62;84.20
41703;BME280;861;48.808;9.006;2023-12-20T03:02:03;97064.50;;;7.50;85.34
41703;BME280;861;48.808;9.006;2023-12-20T03:04:29;97071.81;;;7.49;84.99
41703;BME280;861;48.808;9.006;2023-12-20T03:06:56;97071.22;;;7.59;84.58
41703;BME280;861;48.808;9.006;2023-12-20T03:09:22;97068.41;;;7.30;86.13
41703;BME280;861;48.808;9.006;2023-12-20T03:11:49;97075.94;;;7.40;85.75
41703;BME280;861;48.808;9.006;2023-12-20T03:14:15;97073.28;;;7.43;85.42
41703;BME280;861;48.808;9.006;2023-12-20T03:16:46;97088.59;;;7.32;84.99
41703;BME280;861;48.808;9.006;2023-12-20T03:19:13;97079.69;;;7.09;85.83
41703;BME280;861;48.808;9.006;2023-12-20T03:21:40;97084.69;;;7.07;85.74
41703;BME280;861;48.808;9.006;2023-12-20T03:24:06;97090.72;;;7.20;86.41
41703;BME280;861;48.808;9.006;2023-12-20T03:26:33;97074.31;;;7.13;85.81
41703;BME280;861;48.808;9.006;2023-12-20T03:28:59;97083.47;;;7.05;86.73
41703;BME280;861;48.808;9.006;2023-12-20T03:31:26;97079.88;;;6.97;86.57
41703;BME280;861;48.808;9.006;2023-12-20T03:33:52;97089.91;;;7.19;85.27
41703;BME280;861;48.808;9.006;2023-12-20T03:36:20;97083.41;;;7.01;86.43
41703;BME280;861;48.808;9.006;2023-12-20T03:38:47;97089.97;;;7.00;86.57
41703;BME280;861;48.808;9.006;2023-12-20T03:41:14;97098.59;;;7.06;85.85
41703;BME280;861;48.808;9.006;2023-12-20T03:43:41;97091.00;;;6.92;86.09
41703;BME280;861;48.808;9.006;2023-12-20T03:46:09;97097.00;;;6.82;87.76
41703;BME280;861;48.808;9.006;2023-12-20T03:48:36;97093.41;;;6.97;86.12
41703;BME280;861;48.808;9.006;2023-12-20T03:51:02;97087.25;;;7.00;86.74
41703;BME280;861;48.808;9.006;2023-12-20T03:53:29;97105.75;;;6.95;86.04
41703;BME280;861;48.808;9.006;2023-12-20T03:55:55;97097.91;;;6.90;86.38
41703;BME280;861;48.808;9.006;2023-12-20T03:58:22;97087.06;;;6.67;88.19
41703;BME280;861;48.808;9.006;2023-12-20T04:00:48;97090.25;;;6.73;87.19
41703;BME280;861;48.808;9.006;2023-12-20T04:03:15;97099.41;;;6.87;87.39
41703;BME280;861;48.808;9.006;2023-12-20T04:05:42;97098.56;;;6.83;87.39
41703;BME280;861;48.808;9.006;2023-12-20T04:08:10;97103.69;;;6.88;86.37
41703;BME280;861;48.808;9.006;2023-12-20T04:10:37;97095.78;;;6.80;87.59
41703;BME280;861;48.808;9.006;2023-12-20T04:13:05;97097.00;;;6.82;87.13
41703;BME280;861;48.808;9.006;2023-12-20T04:15:31;97099.28;;;6.80;86.90
41703;BME280;861;48.808;9.006;2023-12-20T04:17:58;97106.84;;;6.71;87.29
41703;BME280;861;48.808;9.006;2023-12-20T04:20:24;97111.31;;;6.64;87.47
41703;BME280;861;48.808;9.006;2023-12-20T04:22:51;97122.00;;;6.76;86.15
41703;BME280;861;48.808;9.006;2023-12-20T04:25:17;97124.06;;;6.82;86.64
41703;BME280;861;48.808;9.006;2023-12-20T04:27:44;97123.59;;;6.58;88.50
41703;BME280;861;48.808;9.006;2023-12-20T04:30:11;97115.31;;;6.70;87.25
41703;BME280;861;48.808;9.006;2023-12-20T04:32:37;97112.97;;;6.68;87.93
41703;BME280;861;48.808;9.006;2023-12-20T04:35:04;97116.16;;;6.74;87.38
41703;BME280;861;48.808;9.006;2023-12-20T04:37:31;97118.88;;;6.74;89.01
41703;BME280;861;48.808;9.006;2023-12-20T04:39:57;97129.25;;;6.72;87.81
41703;BME280;861;48.808;9.006;2023-12-20T04:42:24;97133.50;;;6.92;88.23
41703;BME280;861;48.808;9.006;2023-12-20T04:44:51;97138.44;;;6.86;87.99
41703;BME280;861;48.808;9.006;2023-12-20T04:47:17;97125.13;;;6.78;87.45
41703;BME280;861;48.808;9.006;2023-12-20T04:49:44;97130.13;;;6.57;89.24
41703;BME280;861;48.808;9.006;2023-12-20T04:52:10;97130.97;;;6.61;88.92
41703;BME280;861;48.808;9.006;2023-12-20T04:54:37;97133.56;;;6.73;88.48
41703;BME280;861;48.808;9.006;2023-12-20T04:57:04;97137.31;;;6.68;89.10
41703;BME280;861;48.808;9.006;2023-12-20T04:59:31;97148.00;;;6.61;89.10
41703;BME280;861;48.808;9.006;2023-12-20T05:01:57;97142.31;;;6.66;89.35
41703;BME280;861;48.808;9.006;2023-12-20T05:04:24;97145.06;;;6.70;88.88
41703;BME280;861;48.808;9.006;2023-12-20T05:06:51;97153.91;;;6.67;89.90
41703;BME280;861;48.808;9.006;2023-12-20T05:09:17;97154.22;;;6.62;90.14
41703;BME280;861;48.808;9.006;2023-12-20T05:11:44;97152.34;;;6.66;89.49
41703;BME280;861;48.808;9.006;2023-12-20T05:14:10;97156.13;;;6.61;90.85
41703;BME280;861;48.808;9.006;2023-12-20T05:16:37;97160.53;;;6.69;89.82
41703;BME280;861;48.808;9.006;2023-12-20T05:19:03;97161.44;;;6.77;90.30
41703;BME280;861;48.808;9.006;2023-12-20T05:21:33;97165.56;;;6.90;88.95
41703;BME280;861;48.808;9.006;2023-12-20T05:24:00;97163.88;;;6.63;91.10
41703;BME280;861;48.808;9.006;2023-12-20T05:26:27;97163.53;;;6.64;90.95
41703;BME280;861;48.808;9.006;2023-12-20T05:28:53;97172.63;;;6.75;90.28
41703;BME280;861;48.808;9.006;2023-12-20T05:31:20;97171.56;;;6.80;90.36
41703;BME280;861;48.808;9.006;2023-12-20T05:33:46;97178.13;;;6.79;90.00
41703;BME280;861;48.808;9.006;2023-12-20T05:36:13;97184.16;;;6.72;91.51
41703;BME280;861;48.808;9.006;2023-12-20T05:38:41;97192.56;;;6.67;92.31
41703;BME280;861;48.808;9.006;2023-12-20T05:41:08;97194.06;;;6.65;91.83
41703;BME280;861;48.808;9.006;2023-12-20T05:43:35;97183.88;;;6.39;94.43
41703;BME280;861;48.808;9.006;2023-12-20T05:46:02;97190.84;;;6.59;94.21
41703;BME280;861;48.808;9.006;2023-12-20T05:48:28;97193.13;;;6.57;94.23
41703;BME280;861;48.808;9.006;2023-12-20T05:50:55;97201.78;;;6.28;96.01
41703;BME280;861;48.808;9.006;2023-12-20T05:53:21;97203.66;;;6.43;94.37
41703;BME280;861;48.808;9.006;2023-12-20T05:55:48;97210.03;;;6.35;94.87
41703;BME280;861;48.808;9.006;2023-12-20T05:58:14;97212.41;;;6.37;95.03
41703;BME280;861;48.808;9.006;2023-12-20T06:00:41;97220.22;;;6.42;96.00
41703;BME280;861;48.808;9.006;2023-12-20T06:03:07;97220.34;;;6.64;94.22
41703;BME280;861;48.808;9.006;2023-12-20T06:05:34;97221.41;;;6.60;93.64
41703;BME280;861;48.808;9.006;2023-12-20T06:08:01;97225.50;;;6.35;94.87
41703;BME280;861;48.808;9.006;2023-12-20T06:10:29;97230.31;;;6.60;94.73
41703;BME280;861;48.808;9.006;2023-12-20T06:12:56;97226.22;;;6.70;93.38
41703;BME280;861;48.808;9.006;2023-12-20T06:15:23;97223.53;;;6.70;93.69
41703;BME280;861;48.808;9.006;2023-12-20T06:17:50;97225.72;;;6.45;95.40
41703;BME280;861;48.808;9.006;2023-12-20T06:20:16;97222.53;;;6.97;92.34
41703;BME280;861;48.808;9.006;2023-12-20T06:22:43;97234.34;;;7.08;91.24
41703;BME280;861;48.808;9.006;2023-12-20T06:25:09;97234.78;;;7.10;90.51
41703;BME280;861;48.808;9.006;2023-12-20T06:27:36;97237.94;;;6.93;92.01
41703;BME280;861;48.808;9.006;2023-12-20T06:32:31;97231.19;;;7.25;89.99
41703;BME280;861;48.808;9.006;2023-12-20T06:34:58;97230.16;;;7.10;91.32
41703;BME280;861;48.808;9.006;2023-12-20T06:37:24;97221.91;;;7.03;90.58
41703;BME280;861;48.808;9.006;2023-12-20T06:39:51;97224.53;;;7.00;91.83
41703;BME280;861;48.808;9.006;2023-12-20T06:42:17;97222.97;;;7.18;90.48
41703;BME280;861;48.808;9.006;2023-12-20T06:44:44;97230.88;;;7.07;91.29
41703;BME280;861;48.808;9.006;2023-12-20T06:47:11;97243.19;;;7.24;88.80
41703;BME280;861;48.808;9.006;2023-12-20T06:49:37;97245.72;;;7.36;88.94
41703;BME280;861;48.808;9.006;2023-12-20T06:52:04;97245.59;;;7.29;89.18
41703;BME280;861;48.808;9.006;2023-12-20T06:54:31;97247.94;;;7.30;89.62
41703;BME280;861;48.808;9.006;2023-12-20T06:56:57;97245.69;;;7.32;89.10
41703;BME280;861;48.808;9.006;2023-12-20T06:59:24;97263.06;;;7.31;89.88
41703;BME280;861;48.808;9.006;2023-12-20T07:01:51;97263.13;;;7.35;88.75
41703;BME280;861;48.808;9.006;2023-12-20T07:04:17;97266.00;;;7.23;89.42
41703;BME280;861;48.808;9.006;2023-12-20T07:06:49;97277.31;;;7.28;89.96
41703;BME280;861;48.808;9.006;2023-12-20T07:09:23;97281.88;;;7.24;90.36
41703;BME280;861;48.808;9.006;2023-12-20T07:11:49;97263.94;;;7.16;90.88
41703;BME280;861;48.808;9.006;2023-12-20T07:14:16;97292.06;;;6.93;89.11
41703;BME280;861;48.808;9.006;2023-12-20T07:16:42;97306.88;;;6.99;88.11
41703;BME280;861;48.808;9.006;2023-12-20T07:19:09;97307.25;;;6.97;87.90
41703;BME280;861;48.808;9.006;2023-12-20T07:21:35;97302.81;;;6.89;87.65
41703;BME280;861;48.808;9.006;2023-12-20T07:24:02;97308.59;;;6.88;86.75
41703;BME280;861;48.808;9.006;2023-12-20T07:26:29;97308.59;;;6.88;87.24
41703;BME280;861;48.808;9.006;2023-12-20T07:28:55;97314.84;;;6.73;86.11
41703;BME280;861;48.808;9.006;2023-12-20T07:31:22;97321.47;;;6.75;87.18
41703;BME280;861;48.808;9.006;2023-12-20T07:33:50;97318.75;;;6.75;86.99
41703;BME280;861;48.808;9.006;2023-12-20T07:36:16;97310.41;;;6.65;86.05
41703;BME280;861;48.808;9.006;2023-12-20T07:38:43;97306.81;;;6.61;86.39
41703;BME280;861;48.808;9.006;2023-12-20T07:41:13;97315.84;;;6.49;85.71
41703;BME280;861;48.808;9.006;2023-12-20T07:43:42;97335.25;;;6.70;85.13
41703;BME280;861;48.808;9.006;2023-12-20T07:46:09;97322.09;;;6.69;84.83
41703;BME280;861;48.808;9.006;2023-12-20T07:48:36;97321.94;;;6.62;85.49
41703;BME280;861;48.808;9.006;2023-12-20T07:51:05;97319.22;;;6.62;86.04
41703;BME280;861;48.808;9.006;2023-12-20T07:53:36;97327.13;;;6.70;84.78
41703;BME280;861;48.808;9.006;2023-12-20T07:56:16;97320.53;;;6.68;85.08
41703;BME280;861;48.808;9.006;2023-12-20T07:58:45;97329.75;;;6.67;84.24
41703;BME280;861;48.808;9.006;2023-12-20T08:01:13;97324.47;;;6.55;84.39
41703;BME280;861;48.808;9.006;2023-12-20T08:03:39;97327.84;;;6.67;83.87
41703;BME280;861;48.808;9.006;2023-12-20T08:06:06;97330.09;;;6.65;82.84
41703;BME280;861;48.808;9.006;2023-12-20T08:08:33;97336.78;;;6.52;84.09
41703;BME280;861;48.808;9.006;2023-12-20T08:10:59;97328.56;;;6.64;83.22
41703;BME280;861;48.808;9.006;2023-12-20T08:13:27;97337.28;;;6.58;82.70
41703;BME280;861;48.808;9.006;2023-12-20T08:15:54;97347.41;;;6.61;82.54
41703;BME280;861;48.808;9.006;2023-12-20T08:18:22;97336.78;;;6.52;82.51
41703;BME280;861;48.808;9.006;2023-12-20T08:20:49;97340.97;;;6.50;82.48
41703;BME280;861;48.808;9.006;2023-12-20T08:23:19;97340.28;;;6.37;82.05
41703;BME280;861;48.808;9.006;2023-12-20T08:25:47;97353.78;;;6.37;81.56
41703;BME280;861;48.808;9.006;2023-12-20T08:28:14;97367.16;;;6.30;81.28
41703;BME280;861;48.808;9.006;2023-12-20T08:30:41;97361.47;;;6.19;82.05
41703;BME280;861;48.808;9.006;2023-12-20T08:33:08;97353.47;;;6.23;82.97
41703;BME280;861;48.808;9.006;2023-12-20T08:35:40;97357.66;;;6.20;82.13
41703;BME280;861;48.808;9.006;2023-12-20T08:38:07;97353.72;;;6.18;83.13
41703;BME280;861;48.808;9.006;2023-12-20T08:40:33;97346.22;;;6.27;82.07
41703;BME280;861;48.808;9.006;2023-12-20T08:43:00;97356.75;;;6.32;82.36
41703;BME280;861;48.808;9.006;2023-12-20T08:45:27;97361.22;;;6.24;83.52
41703;BME280;861;48.808;9.006;2023-12-20T08:47:53;97360.50;;;6.28;83.91
41703;BME280;861;48.808;9.006;2023-12-20T08:50:20;97361.47;;;6.51;83.14
41703;BME280;861;48.808;9.006;2023-12-20T08:52:46;97364.59;;;6.53;82.91
41703;BME280;861;48.808;9.006;2023-12-20T08:55:13;97365.84;;;6.55;82.38
41703;BME280;861;48.808;9.006;2023-12-20T08:57:41;97367.84;;;6.58;82.81
41703;BME280;861;48.808;9.006;2023-12-20T09:00:08;97364.69;;;6.56;82.58
41703;BME280;861;48.808;9.006;2023-12-20T09:02:35;97369.63;;;6.70;81.83
41703;BME280;861;48.808;9.006;2023-12-20T09:05:03;97364.03;;;6.78;80.05
41703;BME280;861;48.808;9.006;2023-12-20T09:07:30;97368.91;;;6.88;80.32
41703;BME280;861;48.808;9.006;2023-12-20T09:09:59;97361.88;;;6.68;80.41
41703;BME280;861;48.808;9.006;2023-12-20T09:12:26;97360.59;;;6.97;79.46
41703;BME280;861;48.808;9.006;2023-12-20T09:14:53;97375.63;;;6.94;77.37
41703;BME280;861;48.808;9.006;2023-12-20T09:17:20;97359.53;;;7.01;76.63
41703;BME280;861;48.808;9.006;2023-12-20T09:19:49;97364.22;;;6.85;77.10
41703;BME280;861;48.808;9.006;2023-12-20T09:22:16;97356.16;;;6.89;76.93
41703;BME280;861;48.808;9.006;2023-12-20T09:24:42;97364.25;;;7.04;77.39
41703;BME280;861;48.808;9.006;2023-12-20T09:27:09;97362.88;;;7.14;74.80
41703;BME280;861;48.808;9.006;2023-12-20T09:29:35;97363.53;;;7.07;75.92
41703;BME280;861;48.808;9.006;2023-12-20T09:32:02;97364.19;;;7.20;74.56
41703;BME280;861;48.808;9.006;2023-12-20T09:34:29;97353.91;;;7.10;76.08
41703;BME280;861;48.808;9.006;2023-12-20T09:36:55;97371.38;;;7.31;74.46
41703;BME280;861;48.808;9.006;2023-12-20T09:39:22;97372.25;;;7.16;74.50
41703;BME280;861;48.808;9.006;2023-12-20T09:42:00;97377.94;;;7.30;73.61
41703;BME280;861;48.808;9.006;2023-12-20T09:44:33;97385.22;;;7.26;74.49
41703;BME280;861;48.808;9.006;2023-12-20T09:47:05;97377.44;;;7.44;75.08
41703;BME280;861;48.808;9.006;2023-12-20T09:49:33;97384.81;;;7.43;74.24
41703;BME280;861;48.808;9.006;2023-12-20T09:52:02;97374.81;;;7.47;73.48
41703;BME280;861;48.808;9.006;2023-12-20T09:54:31;97393.22;;;7.38;73.39
41703;BME280;861;48.808;9.006;2023-12-20T09:56:57;97386.00;;;7.65;72.37
41703;BME280;861;48.808;9.006;2023-12-20T09:59:24;97405.06;;;7.49;72.29
41703;BME280;861;48.808;9.006;2023-12-20T10:01:55;97392.00;;;7.01;73.82
41703;BME280;861;48.808;9.006;2023-12-20T10:04:23;97383.88;;;7.01;71.74
41703;BME280;861;48.808;9.006;2023-12-20T10:06:49;97383.78;;;7.13;72.45
41703;BME280;861;48.808;9.006;2023-12-20T10:09:16;97388.25;;;7.06;72.27
41703;BME280;861;48.808;9.006;2023-12-20T10:11:43;97388.94;;;7.03;73.60
41703;BME280;861;48.808;9.006;2023-12-20T10:14:11;97391.00;;;6.75;74.97
41703;BME280;861;48.808;9.006;2023-12-20T10:16:37;97374.72;;;6.71;73.98
41703;BME280;861;48.808;9.006;2023-12-20T10:19:04;97387.91;;;6.92;73.65
41703;BME280;861;48.808;9.006;2023-12-20T10:21:31;97378.53;;;6.70;74.65
41703;BME280;861;48.808;9.006;2023-12-20T10:23:58;97388.50;;;6.66;75.93
41703;BME280;861;48.808;9.006;2023-12-20T10:26:28;97371.31;;;6.59;75.94
41703;BME280;861;48.808;9.006;2023-12-20T10:29:00;97375.03;;;6.70;75.44
41703;BME280;861;48.808;9.006;2023-12-20T10:31:32;97361.97;;;6.72;75.05
41703;BME280;861;48.808;9.006;2023-12-20T10:34:03;97363.59;;;6.76;74.36
41703;BME280;861;48.808;9.006;2023-12-20T10:36:33;97362.13;;;6.79;75.94
41703;BME280;861;48.808;9.006;2023-12-20T10:39:00;97363.44;;;6.85;73.75
41703;BME280;861;48.808;9.006;2023-12-20T10:41:33;97373.22;;;6.74;76.13
41703;BME280;861;48.808;9.006;2023-12-20T10:44:03;97368.03;;;6.84;74.09
41703;BME280;861;48.808;9.006;2023-12-20T10:46:34;97365.97;;;6.78;74.36
41703;BME280;861;48.808;9.006;2023-12-20T10:49:09;97363.38;;;6.66;75.43
41703;BME280;861;48.808;9.006;2023-12-20T10:51:38;97360.41;;;6.71;74.99
41703;BME280;861;48.808;9.006;2023-12-20T10:54:05;97363.69;;;6.80;74.57
41703;BME280;861;48.808;9.006;2023-12-20T10:56:33;97360.22;;;6.98;71.05
41703;BME280;861;48.808;9.006;2023-12-20T10:59:03;97363.97;;;6.75;70.93
41703;BME280;861;48.808;9.006;2023-12-20T11:01:32;97352.41;;;6.93;70.95
41703;BME280;861;48.808;9.006;2023-12-20T11:04:01;97354.50;;;6.84;72.60
41703;BME280;861;48.808;9.006;2023-12-20T11:06:57;97361.81;;;6.99;71.32
41703;BME280;861;48.808;9.006;2023-12-20T11:09:43;97356.59;;;6.91;72.56
41703;BME280;861;48.808;9.006;2023-12-20T11:12:39;97349.97;;;6.88;72.13
41703;BME280;861;48.808;9.006;2023-12-20T11:15:13;97354.97;;;6.71;72.92
41703;BME280;861;48.808;9.006;2023-12-20T11:17:42;97352.06;;;6.79;72.88
41703;BME280;861;48.808;9.006;2023-12-20T11:20:11;97353.66;;;6.80;72.45
41703;BME280;861;48.808;9.006;2023-12-20T11:22:39;97348.94;;;6.77;72.47
41703;BME280;861;48.808;9.006;2023-12-20T11:25:18;97352.06;;;6.95;72.13
41703;BME280;861;48.808;9.006;2023-12-20T11:28:08;97344.16;;;6.71;72.85
41703;BME280;861;48.808;9.006;2023-12-20T11:30:53;97346.25;;;6.77;72.33
41703;BME280;861;48.808;9.006;2023-12-20T11:33:29;97343.09;;;6.75;72.94
41703;BME280;861;48.808;9.006;2023-12-20T11:35:59;97347.19;;;6.85;72.57
41703;BME280;861;48.808;9.006;2023-12-20T11:38:26;97347.28;;;6.88;70.97
41703;BME280;861;48.808;9.006;2023-12-20T11:40:55;97334.19;;;6.75;71.76
41703;BME280;861;48.808;9.006;2023-12-20T11:43:35;97334.50;;;6.89;73.20
41703;BME280;861;48.808;9.006;2023-12-20T11:46:08;97342.91;;;6.49;73.64
41703;BME280;861;48.808;9.006;2023-12-20T11:48:38;97345.09;;;6.78;71.40
41703;BME280;861;48.808;9.006;2023-12-20T11:51:13;97345.06;;;6.94;70.10
41703;BME280;861;48.808;9.006;2023-12-20T11:53:43;97342.56;;;6.85;70.69
41703;BME280;861;48.808;9.006;2023-12-20T11:56:11;97320.88;;;6.66;70.31
41703;BME280;861;48.808;9.006;2023-12-20T11:58:38;97323.31;;;6.56;72.65
41703;BME280;861;48.808;9.006;2023-12-20T12:01:06;97308.84;;;6.83;72.43
41703;BME280;861;48.808;9.006;2023-12-20T12:03:34;97318.88;;;6.63;72.64
41703;BME280;861;48.808;9.006;2023-12-20T12:06:01;97314.44;;;6.55;73.06
41703;BME280;861;48.808;9.006;2023-12-20T12:08:30;97314.72;;;6.85;72.04
41703;BME280;861;48.808;9.006;2023-12-20T12:10:57;97301.81;;;6.97;71.20
41703;BME280;861;48.808;9.006;2023-12-20T12:13:24;97309.22;;;7.00;71.14
41703;BME280;861;48.808;9.006;2023-12-20T12:15:54;97306.88;;;6.99;71.87
41703;BME280;861;48.808;9.006;2023-12-20T12:18:21;97300.09;;;6.89;70.82
41703;BME280;861;48.808;9.006;2023-12-20T12:20:48;97305.38;;;7.01;70.86
41703;BME280;861;48.808;9.006;2023-12-20T12:23:15;97310.66;;;6.94;69.61
41703;BME280;861;48.808;9.006;2023-12-20T12:25:50;97308.03;;;6.98;70.11
41703;BME280;861;48.808;9.006;2023-12-20T12:28:16;97296.50;;;7.01;71.98
41703;BME280;861;48.808;9.006;2023-12-20T12:30:43;97293.00;;;7.00;70.35
41703;BME280;861;48.808;9.006;2023-12-20T12:33:22;97289.28;;;7.27;69.29
41703;BME280;861;48.808;9.006;2023-12-20T12:35:49;97292.44;;;7.29;67.96
41703;BME280;861;48.808;9.006;2023-12-20T12:38:16;97297.91;;;6.95;69.87
41703;BME280;861;48.808;9.006;2023-12-20T12:40:44;97302.75;;;7.05;69.25
41703;BME280;861;48.808;9.006;2023-12-20T12:43:10;97292.94;;;7.16;72.22
41703;BME280;861;48.808;9.006;2023-12-20T12:45:37;97289.06;;;7.36;69.33
41703;BME280;861;48.808;9.006;2023-12-20T12:48:04;97298.34;;;7.35;69.14
41703;BME280;861;48.808;9.006;2023-12-20T12:50:32;97305.19;;;7.29;68.88
41703;BME280;861;48.808;9.006;2023-12-20T12:52:58;97295.34;;;7.02;68.85
41703;BME280;861;48.808;9.006;2023-12-20T12:55:25;97297.34;;;7.05;68.99
41703;BME280;861;48.808;9.006;2023-12-20T12:57:51;97297.97;;;6.98;69.76
41703;BME280;861;48.808;9.006;2023-12-20T13:00:18;97292.16;;;6.96;69.60
41703;BME280;861;48.808;9.006;2023-12-20T13:02:45;97293.59;;;6.75;71.10
41703;BME280;861;48.808;9.006;2023-12-20T13:05:12;97289.19;;;6.86;69.08
41703;BME280;861;48.808;9.006;2023-12-20T13:07:39;97282.03;;;6.93;69.71
41703;BME280;861;48.808;9.006;2023-12-20T13:10:06;97288.13;;;6.90;70.67
41703;BME280;861;48.808;9.006;2023-12-20T13:12:33;97285.78;;;7.08;71.38
41703;BME280;861;48.808;9.006;2023-12-20T13:14:59;97296.06;;;7.37;68.93
41703;BME280;861;48.808;9.006;2023-12-20T13:17:26;97282.56;;;7.59;68.44
41703;BME280;861;48.808;9.006;2023-12-20T13:19:52;97289.25;;;7.88;67.67
41703;BME280;861;48.808;9.006;2023-12-20T13:22:19;97290.03;;;7.89;66.36
41703;BME280;861;48.808;9.006;2023-12-20T13:24:46;97276.84;;;7.87;67.04
41703;BME280;861;48.808;9.006;2023-12-20T13:27:12;97282.31;;;8.36;66.04
41703;BME280;861;48.808;9.006;2023-12-20T13:29:39;97282.38;;;8.39;66.20
41703;BME280;861;48.808;9.006;2023-12-20T13:32:06;97280.19;;;8.48;66.17
41703;BME280;861;48.808;9.006;2023-12-20T13:34:33;97290.94;;;8.41;65.36
41703;BME280;861;48.808;9.006;2023-12-20T13:36:59;97304.91;;;7.98;66.42